CheckWX is a tool to help pilots better visualize weather data.  It is not intended as a substitute for an official pre-flight weather briefing.

12:39:26 UTC

KCDD METAR
Scotts Seaplane Base
Crane Lake, Minnesota, USA
Current

27 mins ago

KCDD 191212Z AUTO 00000KT 5SM BR BKN007 OVC011 M02/M03 A2969 RMK AO2
Observed
Nov-19 @ 12:12 UTC
Visibility
5 SM
Flight Rules
IFR
Conditions
Mist
Cloud Levels
  • Broken at 700' AGL
  • Overcast at 1,100' AGL
Temperature
-2°C / 28°F
Dewpoint
-3°C / 27°F
Humidity
93%
Altimeter
29.69" Hg
Pressure
1005.42 hPa
Previous

47 mins ago

KCDD 191152Z AUTO 00000KT 5SM BR OVC007 M02/M03 A2969 RMK AO2
Observed
Nov-19 @ 11:52 UTC
Visibility
5 SM
Flight Rules
IFR
Conditions
Mist
Cloud Levels
  • Overcast at 700' AGL
Temperature
-2°C / 28°F
Dewpoint
-3°C / 27°F
Humidity
93%
Altimeter
29.69" Hg
Pressure
1005.42 hPa
Previous

1 hour ago

KCDD 191132Z AUTO 00000KT 7SM OVC007 M02/M03 A2969 RMK AO2
Observed
Nov-19 @ 11:32 UTC
Visibility
7 SM
Flight Rules
IFR
Cloud Levels
  • Overcast at 700' AGL
Temperature
-2°C / 28°F
Dewpoint
-3°C / 27°F
Humidity
93%
Altimeter
29.69" Hg
Pressure
1005.42 hPa